sensor_id;sensor_type;location;lat;lon;timestamp;P1;durP1;ratioP1;P2;durP2;ratioP2
9789;SDS011;4934;50.852;8.098;2023-05-07T00:01:15;3.53;;;1.90;;
9789;SDS011;4934;50.852;8.098;2023-05-07T00:03:40;5.85;;;2.00;;
9789;SDS011;4934;50.852;8.098;2023-05-07T00:06:06;2.08;;;1.33;;
9789;SDS011;4934;50.852;8.098;2023-05-07T00:08:32;2.78;;;1.63;;
9789;SDS011;4934;50.852;8.098;2023-05-07T00:10:57;2.88;;;1.75;;
9789;SDS011;4934;50.852;8.098;2023-05-07T00:13:23;2.13;;;1.52;;
9789;SDS011;4934;50.852;8.098;2023-05-07T00:15:49;2.92;;;1.60;;
9789;SDS011;4934;50.852;8.098;2023-05-07T00:18:14;3.25;;;2.08;;
9789;SDS011;4934;50.852;8.098;2023-05-07T00:20:40;4.70;;;3.15;;
9789;SDS011;4934;50.852;8.098;2023-05-07T00:23:06;4.60;;;2.80;;
9789;SDS011;4934;50.852;8.098;2023-05-07T00:25:32;5.20;;;2.80;;
9789;SDS011;4934;50.852;8.098;2023-05-07T00:27:57;3.63;;;2.67;;
9789;SDS011;4934;50.852;8.098;2023-05-07T00:30:28;3.58;;;2.00;;
9789;SDS011;4934;50.852;8.098;2023-05-07T00:32:54;2.25;;;1.67;;
9789;SDS011;4934;50.852;8.098;2023-05-07T00:35:19;3.05;;;1.90;;
9789;SDS011;4934;50.852;8.098;2023-05-07T00:37:45;2.30;;;1.70;;
9789;SDS011;4934;50.852;8.098;2023-05-07T00:40:10;4.55;;;2.00;;
9789;SDS011;4934;50.852;8.098;2023-05-07T00:42:36;3.78;;;1.88;;
9789;SDS011;4934;50.852;8.098;2023-05-07T00:45:02;7.10;;;2.78;;
9789;SDS011;4934;50.852;8.098;2023-05-07T00:47:28;6.22;;;3.25;;
9789;SDS011;4934;50.852;8.098;2023-05-07T00:49:53;3.80;;;2.63;;
9789;SDS011;4934;50.852;8.098;2023-05-07T00:52:19;7.10;;;2.33;;
9789;SDS011;4934;50.852;8.098;2023-05-07T00:54:47;3.35;;;2.25;;
9789;SDS011;4934;50.852;8.098;2023-05-07T00:57:13;5.13;;;2.28;;
9789;SDS011;4934;50.852;8.098;2023-05-07T00:59:39;2.50;;;1.63;;
9789;SDS011;4934;50.852;8.098;2023-05-07T01:02:06;4.97;;;1.77;;
9789;SDS011;4934;50.852;8.098;2023-05-07T01:04:32;5.43;;;2.78;;
9789;SDS011;4934;50.852;8.098;2023-05-07T01:06:58;4.40;;;2.65;;
9789;SDS011;4934;50.852;8.098;2023-05-07T01:09:25;6.63;;;2.95;;
9789;SDS011;4934;50.852;8.098;2023-05-07T01:11:52;4.90;;;2.55;;
9789;SDS011;4934;50.852;8.098;2023-05-07T01:14:18;5.97;;;2.50;;
9789;SDS011;4934;50.852;8.098;2023-05-07T01:16:45;5.93;;;3.30;;
9789;SDS011;4934;50.852;8.098;2023-05-07T01:19:11;6.85;;;3.45;;
9789;SDS011;4934;50.852;8.098;2023-05-07T01:21:41;5.15;;;3.00;;
9789;SDS011;4934;50.852;8.098;2023-05-07T01:24:11;6.63;;;2.65;;
9789;SDS011;4934;50.852;8.098;2023-05-07T01:26:37;4.30;;;3.10;;
9789;SDS011;4934;50.852;8.098;2023-05-07T01:29:03;4.25;;;2.83;;
9789;SDS011;4934;50.852;8.098;2023-05-07T01:31:29;7.05;;;2.55;;
9789;SDS011;4934;50.852;8.098;2023-05-07T01:33:55;4.90;;;2.35;;
9789;SDS011;4934;50.852;8.098;2023-05-07T01:36:24;3.13;;;2.00;;
9789;SDS011;4934;50.852;8.098;2023-05-07T01:38:52;3.70;;;1.83;;
9789;SDS011;4934;50.852;8.098;2023-05-07T01:41:18;5.32;;;2.13;;
9789;SDS011;4934;50.852;8.098;2023-05-07T01:43:44;3.67;;;2.00;;
9789;SDS011;4934;50.852;8.098;2023-05-07T01:46:12;8.10;;;2.50;;
9789;SDS011;4934;50.852;8.098;2023-05-07T01:48:38;3.55;;;2.40;;
9789;SDS011;4934;50.852;8.098;2023-05-07T01:51:05;5.03;;;2.17;;
9789;SDS011;4934;50.852;8.098;2023-05-07T01:53:37;4.30;;;2.40;;
9789;SDS011;4934;50.852;8.098;2023-05-07T01:56:04;4.57;;;3.10;;
9789;SDS011;4934;50.852;8.098;2023-05-07T01:58:30;7.20;;;3.50;;
9789;SDS011;4934;50.852;8.098;2023-05-07T02:00:56;8.98;;;3.80;;
9789;SDS011;4934;50.852;8.098;2023-05-07T02:03:21;5.30;;;2.95;;
9789;SDS011;4934;50.852;8.098;2023-05-07T02:05:48;6.57;;;3.60;;
9789;SDS011;4934;50.852;8.098;2023-05-07T02:14:25;3.67;;;2.35;;
9789;SDS011;4934;50.852;8.098;2023-05-07T02:16:51;2.78;;;2.22;;
9789;SDS011;4934;50.852;8.098;2023-05-07T02:19:16;5.63;;;2.50;;
9789;SDS011;4934;50.852;8.098;2023-05-07T02:21:43;4.10;;;2.45;;
9789;SDS011;4934;50.852;8.098;2023-05-07T02:24:08;3.75;;;2.53;;
9789;SDS011;4934;50.852;8.098;2023-05-07T02:26:34;3.83;;;2.38;;
9789;SDS011;4934;50.852;8.098;2023-05-07T02:29:00;3.53;;;2.58;;
9789;SDS011;4934;50.852;8.098;2023-05-07T02:31:25;3.67;;;2.38;;
9789;SDS011;4934;50.852;8.098;2023-05-07T02:33:51;5.20;;;2.58;;
9789;SDS011;4934;50.852;8.098;2023-05-07T02:36:16;4.47;;;3.08;;
9789;SDS011;4934;50.852;8.098;2023-05-07T02:38:42;8.20;;;3.35;;
9789;SDS011;4934;50.852;8.098;2023-05-07T02:41:08;6.63;;;3.20;;
9789;SDS011;4934;50.852;8.098;2023-05-07T02:43:33;6.93;;;3.40;;
9789;SDS011;4934;50.852;8.098;2023-05-07T02:46:06;6.20;;;3.08;;
9789;SDS011;4934;50.852;8.098;2023-05-07T02:48:32;6.70;;;3.30;;
9789;SDS011;4934;50.852;8.098;2023-05-07T02:50:58;5.00;;;3.08;;
9789;SDS011;4934;50.852;8.098;2023-05-07T02:53:24;4.45;;;2.80;;
9789;SDS011;4934;50.852;8.098;2023-05-07T02:55:55;7.65;;;2.95;;
9789;SDS011;4934;50.852;8.098;2023-05-07T02:58:22;5.05;;;2.80;;
9789;SDS011;4934;50.852;8.098;2023-05-07T03:00:47;5.63;;;2.50;;
9789;SDS011;4934;50.852;8.098;2023-05-07T03:03:13;7.13;;;3.05;;
9789;SDS011;4934;50.852;8.098;2023-05-07T03:05:39;6.32;;;2.63;;
9789;SDS011;4934;50.852;8.098;2023-05-07T03:08:05;5.45;;;3.03;;
9789;SDS011;4934;50.852;8.098;2023-05-07T03:10:30;7.70;;;3.25;;
9789;SDS011;4934;50.852;8.098;2023-05-07T03:12:56;5.50;;;3.13;;
9789;SDS011;4934;50.852;8.098;2023-05-07T03:15:21;4.97;;;2.47;;
9789;SDS011;4934;50.852;8.098;2023-05-07T03:17:47;3.63;;;2.22;;
9789;SDS011;4934;50.852;8.098;2023-05-07T03:20:13;3.13;;;2.10;;
9789;SDS011;4934;50.852;8.098;2023-05-07T03:22:39;4.95;;;2.55;;
9789;SDS011;4934;50.852;8.098;2023-05-07T03:25:05;7.05;;;2.90;;
9789;SDS011;4934;50.852;8.098;2023-05-07T03:30:01;4.47;;;2.53;;
9789;SDS011;4934;50.852;8.098;2023-05-07T03:32:27;5.03;;;2.13;;
9789;SDS011;4934;50.852;8.098;2023-05-07T03:34:53;6.95;;;2.90;;
9789;SDS011;4934;50.852;8.098;2023-05-07T03:37:18;3.42;;;2.53;;
9789;SDS011;4934;50.852;8.098;2023-05-07T03:39:44;6.53;;;2.83;;
9789;SDS011;4934;50.852;8.098;2023-05-07T03:42:10;8.75;;;3.00;;
9789;SDS011;4934;50.852;8.098;2023-05-07T03:44:35;4.20;;;2.88;;
9789;SDS011;4934;50.852;8.098;2023-05-07T03:47:01;4.22;;;2.38;;
9789;SDS011;4934;50.852;8.098;2023-05-07T03:49:27;4.25;;;2.80;;
9789;SDS011;4934;50.852;8.098;2023-05-07T03:51:53;5.85;;;2.55;;
9789;SDS011;4934;50.852;8.098;2023-05-07T03:54:18;5.57;;;3.08;;
9789;SDS011;4934;50.852;8.098;2023-05-07T03:56:44;4.18;;;2.90;;
9789;SDS011;4934;50.852;8.098;2023-05-07T03:59:09;5.60;;;3.08;;
9789;SDS011;4934;50.852;8.098;2023-05-07T04:01:35;5.18;;;3.13;;
9789;SDS011;4934;50.852;8.098;2023-05-07T04:04:01;5.47;;;3.38;;
9789;SDS011;4934;50.852;8.098;2023-05-07T04:06:26;4.70;;;3.50;;
9789;SDS011;4934;50.852;8.098;2023-05-07T04:08:52;5.30;;;3.33;;
9789;SDS011;4934;50.852;8.098;2023-05-07T04:11:18;4.63;;;3.50;;
9789;SDS011;4934;50.852;8.098;2023-05-07T04:13:43;4.50;;;3.00;;
9789;SDS011;4934;50.852;8.098;2023-05-07T04:16:09;6.40;;;2.95;;
9789;SDS011;4934;50.852;8.098;2023-05-07T04:18:35;7.22;;;2.92;;
9789;SDS011;4934;50.852;8.098;2023-05-07T04:21:00;3.95;;;2.85;;
9789;SDS011;4934;50.852;8.098;2023-05-07T04:23:26;5.32;;;2.90;;
9789;SDS011;4934;50.852;8.098;2023-05-07T04:25:51;5.63;;;3.20;;
9789;SDS011;4934;50.852;8.098;2023-05-07T04:28:17;7.00;;;3.13;;
9789;SDS011;4934;50.852;8.098;2023-05-07T04:30:43;5.53;;;2.75;;
9789;SDS011;4934;50.852;8.098;2023-05-07T04:33:09;6.88;;;2.58;;
9789;SDS011;4934;50.852;8.098;2023-05-07T04:35:35;3.63;;;2.42;;
9789;SDS011;4934;50.852;8.098;2023-05-07T04:38:01;3.88;;;2.65;;
9789;SDS011;4934;50.852;8.098;2023-05-07T04:40:26;6.05;;;2.90;;
9789;SDS011;4934;50.852;8.098;2023-05-07T04:42:52;4.47;;;2.83;;
9789;SDS011;4934;50.852;8.098;2023-05-07T04:45:18;5.80;;;2.72;;
9789;SDS011;4934;50.852;8.098;2023-05-07T04:47:43;5.90;;;3.13;;
9789;SDS011;4934;50.852;8.098;2023-05-07T04:50:09;4.32;;;2.67;;
9789;SDS011;4934;50.852;8.098;2023-05-07T04:52:35;4.32;;;3.00;;
9789;SDS011;4934;50.852;8.098;2023-05-07T04:55:01;5.93;;;2.90;;
9789;SDS011;4934;50.852;8.098;2023-05-07T04:57:26;6.80;;;2.85;;
9789;SDS011;4934;50.852;8.098;2023-05-07T04:59:53;4.78;;;3.03;;
9789;SDS011;4934;50.852;8.098;2023-05-07T05:02:19;3.10;;;2.40;;
9789;SDS011;4934;50.852;8.098;2023-05-07T05:04:44;6.18;;;3.47;;
9789;SDS011;4934;50.852;8.098;2023-05-07T05:07:10;5.65;;;3.30;;
9789;SDS011;4934;50.852;8.098;2023-05-07T05:09:36;7.53;;;2.80;;
9789;SDS011;4934;50.852;8.098;2023-05-07T05:12:02;3.42;;;2.80;;
9789;SDS011;4934;50.852;8.098;2023-05-07T05:14:27;4.82;;;3.25;;
9789;SDS011;4934;50.852;8.098;2023-05-07T05:16:53;6.38;;;2.67;;
9789;SDS011;4934;50.852;8.098;2023-05-07T05:19:18;4.28;;;2.88;;
9789;SDS011;4934;50.852;8.098;2023-05-07T05:21:44;3.47;;;2.50;;
9789;SDS011;4934;50.852;8.098;2023-05-07T05:24:10;4.90;;;3.28;;
9789;SDS011;4934;50.852;8.098;2023-05-07T05:26:35;5.25;;;3.15;;
9789;SDS011;4934;50.852;8.098;2023-05-07T05:29:01;5.10;;;3.47;;
9789;SDS011;4934;50.852;8.098;2023-05-07T05:31:26;6.18;;;3.70;;
9789;SDS011;4934;50.852;8.098;2023-05-07T05:33:52;6.15;;;4.20;;
9789;SDS011;4934;50.852;8.098;2023-05-07T05:36:17;6.32;;;4.47;;
9789;SDS011;4934;50.852;8.098;2023-05-07T05:38:43;7.13;;;3.85;;
9789;SDS011;4934;50.852;8.098;2023-05-07T05:41:09;6.28;;;4.05;;
9789;SDS011;4934;50.852;8.098;2023-05-07T05:43:35;6.47;;;3.90;;
9789;SDS011;4934;50.852;8.098;2023-05-07T05:46:01;6.63;;;4.30;;
9789;SDS011;4934;50.852;8.098;2023-05-07T05:48:26;5.68;;;3.67;;
9789;SDS011;4934;50.852;8.098;2023-05-07T05:50:53;6.32;;;3.92;;
9789;SDS011;4934;50.852;8.098;2023-05-07T05:53:19;6.28;;;3.97;;
9789;SDS011;4934;50.852;8.098;2023-05-07T05:55:45;6.10;;;4.22;;
9789;SDS011;4934;50.852;8.098;2023-05-07T05:58:10;6.20;;;4.35;;
9789;SDS011;4934;50.852;8.098;2023-05-07T06:00:36;5.75;;;4.15;;
9789;SDS011;4934;50.852;8.098;2023-05-07T06:03:02;6.45;;;4.05;;
9789;SDS011;4934;50.852;8.098;2023-05-07T06:05:27;6.68;;;4.10;;
9789;SDS011;4934;50.852;8.098;2023-05-07T06:07:53;6.63;;;4.35;;
9789;SDS011;4934;50.852;8.098;2023-05-07T06:10:18;10.73;;;5.53;;
9789;SDS011;4934;50.852;8.098;2023-05-07T06:12:44;12.10;;;5.03;;
9789;SDS011;4934;50.852;8.098;2023-05-07T06:15:10;7.80;;;5.57;;
9789;SDS011;4934;50.852;8.098;2023-05-07T06:17:36;10.38;;;6.35;;
9789;SDS011;4934;50.852;8.098;2023-05-07T06:20:01;11.55;;;7.13;;
9789;SDS011;4934;50.852;8.098;2023-05-07T06:22:27;10.88;;;6.70;;
9789;SDS011;4934;50.852;8.098;2023-05-07T06:24:52;12.60;;;6.60;;
9789;SDS011;4934;50.852;8.098;2023-05-07T06:27:18;10.43;;;6.15;;
9789;SDS011;4934;50.852;8.098;2023-05-07T06:29:43;11.88;;;6.65;;
9789;SDS011;4934;50.852;8.098;2023-05-07T06:32:13;15.13;;;7.20;;
9789;SDS011;4934;50.852;8.098;2023-05-07T06:34:39;9.15;;;6.47;;
9789;SDS011;4934;50.852;8.098;2023-05-07T06:37:05;13.38;;;6.13;;
9789;SDS011;4934;50.852;8.098;2023-05-07T06:39:31;10.05;;;6.13;;
9789;SDS011;4934;50.852;8.098;2023-05-07T06:41:57;12.85;;;6.40;;
9789;SDS011;4934;50.852;8.098;2023-05-07T06:44:23;11.70;;;6.10;;
9789;SDS011;4934;50.852;8.098;2023-05-07T06:46:49;8.93;;;5.72;;
9789;SDS011;4934;50.852;8.098;2023-05-07T06:49:14;9.63;;;5.85;;
9789;SDS011;4934;50.852;8.098;2023-05-07T06:51:40;9.65;;;5.63;;
9789;SDS011;4934;50.852;8.098;2023-05-07T06:54:05;9.23;;;5.80;;
9789;SDS011;4934;50.852;8.098;2023-05-07T06:56:31;8.00;;;5.60;;
9789;SDS011;4934;50.852;8.098;2023-05-07T06:58:59;7.72;;;5.28;;
9789;SDS011;4934;50.852;8.098;2023-05-07T07:01:25;6.90;;;4.90;;
9789;SDS011;4934;50.852;8.098;2023-05-07T07:03:50;7.90;;;5.28;;
9789;SDS011;4934;50.852;8.098;2023-05-07T07:06:16;9.13;;;5.20;;
9789;SDS011;4934;50.852;8.098;2023-05-07T07:08:42;6.80;;;4.55;;
9789;SDS011;4934;50.852;8.098;2023-05-07T07:11:08;9.27;;;4.78;;
9789;SDS011;4934;50.852;8.098;2023-05-07T07:13:35;8.25;;;5.25;;
9789;SDS011;4934;50.852;8.098;2023-05-07T07:16:00;8.18;;;4.35;;
9789;SDS011;4934;50.852;8.098;2023-05-07T07:18:26;6.82;;;4.75;;
9789;SDS011;4934;50.852;8.098;2023-05-07T07:20:52;7.45;;;4.53;;
9789;SDS011;4934;50.852;8.098;2023-05-07T07:23:18;7.93;;;4.80;;
9789;SDS011;4934;50.852;8.098;2023-05-07T07:25:44;8.15;;;4.72;;
9789;SDS011;4934;50.852;8.098;2023-05-07T07:28:09;6.10;;;4.63;;
9789;SDS011;4934;50.852;8.098;2023-05-07T07:30:36;12.20;;;4.68;;
9789;SDS011;4934;50.852;8.098;2023-05-07T07:33:02;10.40;;;4.90;;
9789;SDS011;4934;50.852;8.098;2023-05-07T07:35:31;8.10;;;4.65;;
9789;SDS011;4934;50.852;8.098;2023-05-07T07:37:57;8.55;;;5.15;;
9789;SDS011;4934;50.852;8.098;2023-05-07T07:40:23;8.25;;;4.95;;
9789;SDS011;4934;50.852;8.098;2023-05-07T07:42:49;6.80;;;4.53;;
9789;SDS011;4934;50.852;8.098;2023-05-07T07:45:15;6.82;;;5.10;;
9789;SDS011;4934;50.852;8.098;2023-05-07T07:47:41;7.28;;;5.15;;
9789;SDS011;4934;50.852;8.098;2023-05-07T07:50:07;8.10;;;5.30;;
9789;SDS011;4934;50.852;8.098;2023-05-07T07:52:33;7.05;;;5.03;;
9789;SDS011;4934;50.852;8.098;2023-05-07T07:54:59;10.35;;;6.25;;
9789;SDS011;4934;50.852;8.098;2023-05-07T07:57:25;9.18;;;5.85;;
9789;SDS011;4934;50.852;8.098;2023-05-07T07:59:50;9.20;;;5.30;;
9789;SDS011;4934;50.852;8.098;2023-05-07T08:02:16;10.82;;;6.13;;
9789;SDS011;4934;50.852;8.098;2023-05-07T08:04:42;9.82;;;5.85;;
9789;SDS011;4934;50.852;8.098;2023-05-07T08:07:08;12.38;;;6.05;;
9789;SDS011;4934;50.852;8.098;2023-05-07T08:09:35;7.88;;;5.85;;
9789;SDS011;4934;50.852;8.098;2023-05-07T08:12:01;7.22;;;5.53;;
9789;SDS011;4934;50.852;8.098;2023-05-07T08:14:27;13.45;;;6.03;;
9789;SDS011;4934;50.852;8.098;2023-05-07T08:16:53;10.68;;;6.35;;
9789;SDS011;4934;50.852;8.098;2023-05-07T08:19:19;9.75;;;6.30;;
9789;SDS011;4934;50.852;8.098;2023-05-07T08:21:45;8.60;;;5.28;;
9789;SDS011;4934;50.852;8.098;2023-05-07T08:24:13;6.07;;;4.95;;
9789;SDS011;4934;50.852;8.098;2023-05-07T08:26:38;8.95;;;5.07;;
9789;SDS011;4934;50.852;8.098;2023-05-07T08:29:04;11.07;;;5.90;;
9789;SDS011;4934;50.852;8.098;2023-05-07T08:31:30;9.88;;;6.22;;
9789;SDS011;4934;50.852;8.098;2023-05-07T08:33:57;8.95;;;6.22;;
9789;SDS011;4934;50.852;8.098;2023-05-07T08:36:23;11.85;;;6.07;;
9789;SDS011;4934;50.852;8.098;2023-05-07T08:38:48;10.48;;;6.10;;
9789;SDS011;4934;50.852;8.098;2023-05-07T08:41:14;9.75;;;6.63;;
9789;SDS011;4934;50.852;8.098;2023-05-07T08:43:41;7.70;;;5.60;;
9789;SDS011;4934;50.852;8.098;2023-05-07T08:46:08;9.02;;;5.97;;
9789;SDS011;4934;50.852;8.098;2023-05-07T08:51:01;9.50;;;5.68;;
9789;SDS011;4934;50.852;8.098;2023-05-07T08:53:27;9.20;;;5.68;;
9789;SDS011;4934;50.852;8.098;2023-05-07T08:55:53;15.85;;;6.75;;
9789;SDS011;4934;50.852;8.098;2023-05-07T08:58:18;10.75;;;5.88;;
9789;SDS011;4934;50.852;8.098;2023-05-07T09:00:44;9.35;;;6.03;;
9789;SDS011;4934;50.852;8.098;2023-05-07T09:03:10;11.32;;;6.20;;
9789;SDS011;4934;50.852;8.098;2023-05-07T09:08:05;9.02;;;5.75;;
9789;SDS011;4934;50.852;8.098;2023-05-07T09:10:35;9.23;;;5.95;;
9789;SDS011;4934;50.852;8.098;2023-05-07T09:13:00;9.10;;;6.22;;
9789;SDS011;4934;50.852;8.098;2023-05-07T09:15:28;7.40;;;5.43;;
9789;SDS011;4934;50.852;8.098;2023-05-07T09:17:53;7.82;;;5.43;;
9789;SDS011;4934;50.852;8.098;2023-05-07T09:20:23;8.02;;;6.07;;
9789;SDS011;4934;50.852;8.098;2023-05-07T09:22:49;10.77;;;6.18;;
9789;SDS011;4934;50.852;8.098;2023-05-07T09:25:16;12.02;;;6.20;;
9789;SDS011;4934;50.852;8.098;2023-05-07T09:27:54;8.98;;;6.63;;
9789;SDS011;4934;50.852;8.098;2023-05-07T09:30:20;8.38;;;5.97;;
9789;SDS011;4934;50.852;8.098;2023-05-07T09:32:45;10.02;;;5.78;;
9789;SDS011;4934;50.852;8.098;2023-05-07T09:35:17;7.30;;;5.60;;
9789;SDS011;4934;50.852;8.098;2023-05-07T09:37:43;8.10;;;6.30;;
9789;SDS011;4934;50.852;8.098;2023-05-07T09:40:19;9.60;;;6.03;;
9789;SDS011;4934;50.852;8.098;2023-05-07T09:42:46;9.37;;;5.77;;
9789;SDS011;4934;50.852;8.098;2023-05-07T09:45:12;7.88;;;5.78;;
9789;SDS011;4934;50.852;8.098;2023-05-07T09:47:38;10.90;;;5.05;;
9789;SDS011;4934;50.852;8.098;2023-05-07T09:50:07;8.10;;;4.80;;
9789;SDS011;4934;50.852;8.098;2023-05-07T09:52:35;7.85;;;5.53;;
9789;SDS011;4934;50.852;8.098;2023-05-07T09:55:02;7.28;;;5.57;;
9789;SDS011;4934;50.852;8.098;2023-05-07T09:57:28;8.05;;;5.30;;
9789;SDS011;4934;50.852;8.098;2023-05-07T09:59:55;7.00;;;5.93;;
9789;SDS011;4934;50.852;8.098;2023-05-07T10:02:23;8.17;;;5.10;;
9789;SDS011;4934;50.852;8.098;2023-05-07T10:04:52;6.90;;;5.25;;
9789;SDS011;4934;50.852;8.098;2023-05-07T10:07:19;9.15;;;5.20;;
9789;SDS011;4934;50.852;8.098;2023-05-07T10:09:46;7.75;;;4.65;;
9789;SDS011;4934;50.852;8.098;2023-05-07T10:12:12;9.13;;;4.13;;
9789;SDS011;4934;50.852;8.098;2023-05-07T10:14:38;10.55;;;4.70;;
9789;SDS011;4934;50.852;8.098;2023-05-07T10:17:03;5.03;;;3.97;;
9789;SDS011;4934;50.852;8.098;2023-05-07T10:19:30;7.00;;;4.30;;
9789;SDS011;4934;50.852;8.098;2023-05-07T10:22:01;7.20;;;4.20;;
9789;SDS011;4934;50.852;8.098;2023-05-07T10:24:31;6.20;;;4.18;;
9789;SDS011;4934;50.852;8.098;2023-05-07T10:26:59;6.72;;;4.15;;
9789;SDS011;4934;50.852;8.098;2023-05-07T10:31:58;7.43;;;4.30;;
9789;SDS011;4934;50.852;8.098;2023-05-07T10:34:50;8.07;;;4.63;;
9789;SDS011;4934;50.852;8.098;2023-05-07T10:37:20;4.60;;;3.80;;
9789;SDS011;4934;50.852;8.098;2023-05-07T10:39:46;5.35;;;3.70;;
9789;SDS011;4934;50.852;8.098;2023-05-07T10:42:12;13.80;;;4.70;;
9789;SDS011;4934;50.852;8.098;2023-05-07T10:44:39;8.05;;;3.88;;
9789;SDS011;4934;50.852;8.098;2023-05-07T10:52:16;5.88;;;3.90;;
9789;SDS011;4934;50.852;8.098;2023-05-07T10:54:43;5.60;;;4.38;;
9789;SDS011;4934;50.852;8.098;2023-05-07T10:59:57;5.45;;;4.30;;
9789;SDS011;4934;50.852;8.098;2023-05-07T11:02:22;4.80;;;3.58;;
9789;SDS011;4934;50.852;8.098;2023-05-07T11:07:54;7.18;;;4.63;;
9789;SDS011;4934;50.852;8.098;2023-05-07T11:10:20;6.50;;;4.60;;
9789;SDS011;4934;50.852;8.098;2023-05-07T11:12:47;8.25;;;4.75;;
9789;SDS011;4934;50.852;8.098;2023-05-07T11:15:13;6.03;;;4.55;;
9789;SDS011;4934;50.852;8.098;2023-05-07T11:17:57;6.93;;;5.07;;
9789;SDS011;4934;50.852;8.098;2023-05-07T11:26:14;7.90;;;4.72;;
9789;SDS011;4934;50.852;8.098;2023-05-07T11:28:41;9.77;;;4.38;;
9789;SDS011;4934;50.852;8.098;2023-05-07T11:31:08;5.72;;;4.88;;
9789;SDS011;4934;50.852;8.098;2023-05-07T11:33:34;11.57;;;5.85;;
9789;SDS011;4934;50.852;8.098;2023-05-07T11:36:03;12.55;;;6.28;;
9789;SDS011;4934;50.852;8.098;2023-05-07T11:38:30;6.93;;;5.05;;
9789;SDS011;4934;50.852;8.098;2023-05-07T11:40:56;9.80;;;5.63;;
9789;SDS011;4934;50.852;8.098;2023-05-07T11:43:23;9.40;;;5.78;;
9789;SDS011;4934;50.852;8.098;2023-05-07T11:45:49;9.63;;;6.30;;
9789;SDS011;4934;50.852;8.098;2023-05-07T11:48:15;10.20;;;6.78;;
9789;SDS011;4934;50.852;8.098;2023-05-07T11:50:54;9.07;;;6.18;;
9789;SDS011;4934;50.852;8.098;2023-05-07T11:53:26;10.63;;;5.68;;
9789;SDS011;4934;50.852;8.098;2023-05-07T11:55:52;10.05;;;6.75;;
9789;SDS011;4934;50.852;8.098;2023-05-07T11:58:22;7.88;;;5.47;;
9789;SDS011;4934;50.852;8.098;2023-05-07T12:00:49;7.13;;;5.50;;
9789;SDS011;4934;50.852;8.098;2023-05-07T12:03:15;8.82;;;5.75;;
9789;SDS011;4934;50.852;8.098;2023-05-07T12:05:42;7.30;;;5.20;;
9789;SDS011;4934;50.852;8.098;2023-05-07T12:08:17;9.05;;;5.47;;
9789;SDS011;4934;50.852;8.098;2023-05-07T12:10:43;8.02;;;5.50;;
9789;SDS011;4934;50.852;8.098;2023-05-07T12:13:14;9.95;;;5.78;;
9789;SDS011;4934;50.852;8.098;2023-05-07T12:15:43;7.35;;;4.95;;
9789;SDS011;4934;50.852;8.098;2023-05-07T12:18:09;6.85;;;4.82;;
9789;SDS011;4934;50.852;8.098;2023-05-07T12:20:38;9.10;;;5.85;;
9789;SDS011;4934;50.852;8.098;2023-05-07T12:23:05;7.10;;;4.55;;
9789;SDS011;4934;50.852;8.098;2023-05-07T12:25:31;8.88;;;5.15;;
9789;SDS011;4934;50.852;8.098;2023-05-07T12:28:01;6.85;;;4.65;;
9789;SDS011;4934;50.852;8.098;2023-05-07T12:30:29;6.78;;;4.72;;
9789;SDS011;4934;50.852;8.098;2023-05-07T12:32:56;9.45;;;5.03;;
9789;SDS011;4934;50.852;8.098;2023-05-07T12:35:28;6.80;;;4.75;;
9789;SDS011;4934;50.852;8.098;2023-05-07T12:38:00;9.43;;;4.35;;
9789;SDS011;4934;50.852;8.098;2023-05-07T12:40:35;6.63;;;4.50;;
9789;SDS011;4934;50.852;8.098;2023-05-07T12:43:30;5.82;;;4.28;;
9789;SDS011;4934;50.852;8.098;2023-05-07T12:45:57;7.25;;;4.93;;
9789;SDS011;4934;50.852;8.098;2023-05-07T12:48:26;7.90;;;4.70;;
9789;SDS011;4934;50.852;8.098;2023-05-07T12:50:52;5.95;;;4.32;;
9789;SDS011;4934;50.852;8.098;2023-05-07T12:53:20;7.82;;;4.63;;
9789;SDS011;4934;50.852;8.098;2023-05-07T12:55:47;10.27;;;5.28;;
9789;SDS011;4934;50.852;8.098;2023-05-07T12:58:14;5.70;;;4.32;;
9789;SDS011;4934;50.852;8.098;2023-05-07T13:00:42;7.88;;;4.63;;
9789;SDS011;4934;50.852;8.098;2023-05-07T13:03:08;6.65;;;4.50;;
9789;SDS011;4934;50.852;8.098;2023-05-07T13:05:34;7.20;;;4.82;;
9789;SDS011;4934;50.852;8.098;2023-05-07T13:08:00;6.50;;;4.78;;
9789;SDS011;4934;50.852;8.098;2023-05-07T13:10:26;6.78;;;4.45;;
9789;SDS011;4934;50.852;8.098;2023-05-07T13:12:52;7.40;;;4.43;;
9789;SDS011;4934;50.852;8.098;2023-05-07T13:15:18;7.68;;;4.88;;
9789;SDS011;4934;50.852;8.098;2023-05-07T13:17:44;6.43;;;4.25;;
9789;SDS011;4934;50.852;8.098;2023-05-07T13:20:10;6.57;;;4.40;;
9789;SDS011;4934;50.852;8.098;2023-05-07T13:22:37;9.65;;;3.97;;
9789;SDS011;4934;50.852;8.098;2023-05-07T13:25:03;8.27;;;4.20;;
9789;SDS011;4934;50.852;8.098;2023-05-07T13:27:29;6.07;;;4.18;;
9789;SDS011;4934;50.852;8.098;2023-05-07T13:29:55;5.60;;;3.83;;
9789;SDS011;4934;50.852;8.098;2023-05-07T13:32:21;6.55;;;4.40;;
9789;SDS011;4934;50.852;8.098;2023-05-07T13:34:47;5.28;;;3.97;;
9789;SDS011;4934;50.852;8.098;2023-05-07T13:37:13;6.80;;;4.00;;
9789;SDS011;4934;50.852;8.098;2023-05-07T13:39:38;5.25;;;3.78;;
9789;SDS011;4934;50.852;8.098;2023-05-07T13:42:04;5.72;;;3.45;;
9789;SDS011;4934;50.852;8.098;2023-05-07T13:44:29;4.28;;;3.63;;
9789;SDS011;4934;50.852;8.098;2023-05-07T13:46:55;5.18;;;4.03;;
9789;SDS011;4934;50.852;8.098;2023-05-07T13:49:20;4.57;;;3.10;;
9789;SDS011;4934;50.852;8.098;2023-05-07T13:51:46;5.68;;;3.53;;
9789;SDS011;4934;50.852;8.098;2023-05-07T13:54:12;6.85;;;3.70;;
9789;SDS011;4934;50.852;8.098;2023-05-07T13:56:37;9.93;;;6.40;;
9789;SDS011;4934;50.852;8.098;2023-05-07T13:59:03;5.45;;;4.57;;
9789;SDS011;4934;50.852;8.098;2023-05-07T14:01:28;5.82;;;3.63;;
9789;SDS011;4934;50.852;8.098;2023-05-07T14:03:55;9.68;;;4.10;;
9789;SDS011;4934;50.852;8.098;2023-05-07T14:06:22;8.02;;;4.57;;
9789;SDS011;4934;50.852;8.098;2023-05-07T14:08:48;7.10;;;3.95;;
9789;SDS011;4934;50.852;8.098;2023-05-07T14:11:13;5.65;;;3.83;;
9789;SDS011;4934;50.852;8.098;2023-05-07T14:13:39;13.35;;;4.60;;
9789;SDS011;4934;50.852;8.098;2023-05-07T14:16:05;6.20;;;4.18;;
9789;SDS011;4934;50.852;8.098;2023-05-07T14:18:30;9.02;;;4.40;;
9789;SDS011;4934;50.852;8.098;2023-05-07T14:20:56;7.03;;;4.28;;
9789;SDS011;4934;50.852;8.098;2023-05-07T14:23:22;6.88;;;4.50;;
9789;SDS011;4934;50.852;8.098;2023-05-07T14:25:51;8.45;;;4.35;;
9789;SDS011;4934;50.852;8.098;2023-05-07T14:28:17;8.13;;;4.95;;
9789;SDS011;4934;50.852;8.098;2023-05-07T14:30:43;6.47;;;5.05;;
9789;SDS011;4934;50.852;8.098;2023-05-07T14:33:08;8.93;;;4.38;;
9789;SDS011;4934;50.852;8.098;2023-05-07T14:35:34;6.93;;;4.07;;
9789;SDS011;4934;50.852;8.098;2023-05-07T14:38:00;6.63;;;4.20;;
9789;SDS011;4934;50.852;8.098;2023-05-07T14:40:25;13.07;;;4.63;;
9789;SDS011;4934;50.852;8.098;2023-05-07T14:42:51;6.28;;;4.10;;
9789;SDS011;4934;50.852;8.098;2023-05-07T14:45:17;6.57;;;4.40;;
9789;SDS011;4934;50.852;8.098;2023-05-07T14:47:42;6.90;;;4.50;;
9789;SDS011;4934;50.852;8.098;2023-05-07T14:50:08;7.25;;;4.40;;
9789;SDS011;4934;50.852;8.098;2023-05-07T14:52:33;7.65;;;4.47;;
9789;SDS011;4934;50.852;8.098;2023-05-07T14:54:59;6.55;;;4.10;;
9789;SDS011;4934;50.852;8.098;2023-05-07T14:57:25;6.07;;;4.57;;
9789;SDS011;4934;50.852;8.098;2023-05-07T14:59:50;8.93;;;4.93;;
9789;SDS011;4934;50.852;8.098;2023-05-07T15:02:16;9.35;;;3.90;;
9789;SDS011;4934;50.852;8.098;2023-05-07T15:04:42;7.85;;;4.30;;
9789;SDS011;4934;50.852;8.098;2023-05-07T15:07:13;6.07;;;4.28;;
9789;SDS011;4934;50.852;8.098;2023-05-07T15:09:43;8.23;;;4.38;;
9789;SDS011;4934;50.852;8.098;2023-05-07T15:12:09;7.80;;;4.70;;
9789;SDS011;4934;50.852;8.098;2023-05-07T15:14:36;8.02;;;4.70;;
9789;SDS011;4934;50.852;8.098;2023-05-07T15:17:05;7.00;;;4.57;;
9789;SDS011;4934;50.852;8.098;2023-05-07T15:19:30;6.63;;;4.80;;
9789;SDS011;4934;50.852;8.098;2023-05-07T15:21:57;7.88;;;5.20;;
9789;SDS011;4934;50.852;8.098;2023-05-07T15:24:24;10.02;;;5.45;;
9789;SDS011;4934;50.852;8.098;2023-05-07T15:26:51;9.23;;;4.80;;
9789;SDS011;4934;50.852;8.098;2023-05-07T15:29:17;9.07;;;4.72;;
9789;SDS011;4934;50.852;8.098;2023-05-07T15:31:43;7.25;;;4.50;;
9789;SDS011;4934;50.852;8.098;2023-05-07T15:34:08;8.70;;;5.38;;
9789;SDS011;4934;50.852;8.098;2023-05-07T15:36:34;8.07;;;4.68;;
9789;SDS011;4934;50.852;8.098;2023-05-07T15:39:00;8.05;;;4.93;;
9789;SDS011;4934;50.852;8.098;2023-05-07T15:41:27;10.23;;;4.43;;
9789;SDS011;4934;50.852;8.098;2023-05-07T15:43:53;8.18;;;4.40;;